Time;durP1;ratioP1;P1;durP2;ratioP2;P2;SDS_P1;SDS_P2;PMS_P1;PMS_P2;Temp;Humidity;BMP_temperature;BMP_pressure;BME280_temperature;BME280_humidity;BME280_pressure;Samples;Min_cycle;Max_cycle;Signal;HPM_P1;HPM_P2
2022/11/29 00:04:43;;;;;;;44.33;22.23;;;;;;;;;;10306516;28;20031;-81
2022/11/29 00:09:44;;;;;;;44.45;23.67;;;;;;;;;;10345805;28;20278;-84
2022/11/29 00:14:44;;;;;;;36.22;19.13;;;;;;;;;;10333559;28;20059;-81
2022/11/29 00:19:46;;;;;;;40.13;20.00;;;;;;;;;;10334042;28;20522;-81
2022/11/29 00:24:46;;;;;;;38.47;19.63;;;;;;;;;;10337943;28;20019;-79
2022/11/29 00:29:47;;;;;;;33.92;17.83;;;;;;;;;;10345256;28;20046;-84
2022/11/29 00:34:47;;;;;;;40.58;20.67;;;;;;;;;;10313280;28;20039;-85
2022/11/29 00:39:48;;;;;;;36.22;19.70;;;;;;;;;;10282436;28;20110;-84
2022/11/29 00:44:48;;;;;;;43.05;21.15;;;;;;;;;;10310993;28;20112;-83
2022/11/29 00:49:48;;;;;;;41.27;20.50;;;;;;;;;;10297342;28;20035;-85
2022/11/29 00:54:49;;;;;;;40.47;18.37;;;;;;;;;;10283937;28;20294;-84
2022/11/29 00:59:49;;;;;;;38.77;20.50;;;;;;;;;;10293539;28;20786;-84
2022/11/29 01:04:52;;;;;;;43.40;19.95;;;;;;;;;;10292778;28;20357;-87
2022/11/29 01:09:54;;;;;;;34.88;18.48;;;;;;;;;;10297939;28;20841;-85
2022/11/29 01:14:54;;;;;;;38.30;19.92;;;;;;;;;;10320252;28;20043;-80
2022/11/29 01:19:57;;;;;;;44.75;21.52;;;;;;;;;;10269386;28;20050;-83
2022/11/29 01:24:58;;;;;;;47.45;22.75;;;;;;;;;;10272538;28;20097;-83
2022/11/29 01:29:58;;;;;;;42.25;21.23;;;;;;;;;;10292345;28;20034;-81
2022/11/29 01:34:59;;;;;;;42.20;21.67;;;;;;;;;;10298463;28;20125;-81
2022/11/29 01:39:59;;;;;;;43.85;22.48;;;;;;;;;;10298101;28;20054;-80
2022/11/29 01:45:05;;;;;;;46.47;21.33;;;;;;;;;;10256988;28;20055;-79
2022/11/29 01:50:06;;;;;;;38.58;21.25;;;;;;;;;;10287032;28;20034;-80
2022/11/29 01:55:10;;;;;;;37.47;20.30;;;;;;;;;;10289899;28;20454;-79
2022/11/29 02:00:12;;;;;;;39.03;19.23;;;;;;;;;;10289252;28;20047;-80
2022/11/29 02:05:16;;;;;;;43.25;21.33;;;;;;;;;;10271479;28;20101;-79
2022/11/29 02:10:17;;;;;;;44.20;21.80;;;;;;;;;;10289409;28;20089;-79
2022/11/29 02:15:27;;;;;;;41.83;21.63;;;;;;;;;;10288697;28;20050;-79
2022/11/29 02:20:46;;;;;;;41.25;20.85;;;;;;;;;;10287303;28;20047;-81
2022/11/29 02:25:46;;;;;;;41.42;21.75;;;;;;;;;;10273383;28;20042;-80
2022/11/29 02:31:05;;;;;;;42.10;21.70;;;;;;;;;;10291540;28;20504;-83
2022/11/29 02:36:22;;;;;;;41.90;19.88;;;;;;;;;;10290789;28;20094;-82
2022/11/29 02:41:29;;;;;;;39.28;20.17;;;;;;;;;;10293134;28;20043;-82
2022/11/29 02:46:48;;;;;;;42.47;21.33;;;;;;;;;;10269801;28;20042;-82
2022/11/29 02:52:11;;;;;;;39.47;20.48;;;;;;;;;;10269834;28;20137;-82
2022/11/29 02:57:23;;;;;;;35.78;19.60;;;;;;;;;;10299197;28;20037;-80
2022/11/29 03:02:43;;;;;;;32.28;17.83;;;;;;;;;;10316624;28;20031;-81
2022/11/29 03:07:50;;;;;;;37.00;19.00;;;;;;;;;;10336206;28;20041;-82
2022/11/29 03:12:52;;;;;;;36.70;19.27;;;;;;;;;;10317685;28;20058;-81
2022/11/29 03:17:55;;;;;;;36.42;19.02;;;;;;;;;;10303497;28;20054;-80
2022/11/29 03:23:13;;;;;;;40.17;20.27;;;;;;;;;;10328252;28;20046;-82
2022/11/29 03:28:17;;;;;;;38.60;19.85;;;;;;;;;;10284666;28;20031;-82
2022/11/29 03:33:25;;;;;;;39.97;21.25;;;;;;;;;;10282653;28;20041;-83
2022/11/29 03:38:45;;;;;;;40.67;19.95;;;;;;;;;;10293445;28;20042;-83
2022/11/29 03:44:04;;;;;;;39.33;19.10;;;;;;;;;;10299528;28;20042;-82
2022/11/29 03:49:10;;;;;;;34.03;19.65;;;;;;;;;;10290175;28;20093;-80
2022/11/29 03:54:13;;;;;;;32.50;18.30;;;;;;;;;;10307425;28;20039;-83
2022/11/29 03:59:23;;;;;;;38.08;19.60;;;;;;;;;;10277906;28;20038;-82
2022/11/29 04:04:29;;;;;;;41.13;19.73;;;;;;;;;;10318885;28;20045;-82
2022/11/29 04:09:29;;;;;;;42.17;18.83;;;;;;;;;;10322130;28;20045;-80
2022/11/29 04:14:32;;;;;;;39.07;20.27;;;;;;;;;;10323809;28;20551;-81
2022/11/29 04:25:26;;;;;;;37.85;19.33;;;;;;;7.01;100.00;98236.84;10664554;27;1254859;-80
2022/11/29 04:30:43;;;;;;;37.63;20.65;;;;;;;7.01;100.00;98236.06;10667046;27;20023;-80
2022/11/29 04:35:54;;;;;;;40.78;20.40;;;;;;;7.00;100.00;98239.81;10702624;27;20254;-80
2022/11/29 04:41:12;;;;;;;36.03;19.63;;;;;;;7.06;100.00;98249.31;10699279;27;20026;-81
2022/11/29 04:46:42;;;;;;;37.03;19.55;;;;;;;7.11;100.00;98251.84;10680504;27;20119;-81
2022/11/29 04:52:04;;;;;;;33.58;17.80;;;;;;;7.18;100.00;98252.22;10643031;27;20102;-81
2022/11/29 04:57:08;;;;;;;37.50;19.92;;;;;;;7.20;100.00;98255.38;10652955;27;20119;-81
2022/11/29 05:02:28;;;;;;;34.80;17.98;;;;;;;7.24;100.00;98263.59;10643798;27;20100;-81
2022/11/29 05:07:50;;;;;;;36.42;19.70;;;;;;;7.18;100.00;98264.78;10641695;27;20126;-80
2022/11/29 05:13:14;;;;;;;38.88;19.15;;;;;;;7.19;100.00;98269.03;10614632;27;20073;-80
2022/11/29 05:18:33;;;;;;;38.17;19.70;;;;;;;7.22;100.00;98271.88;10603983;27;20047;-81
2022/11/29 05:24:22;;;;;;;33.70;18.10;;;;;;;7.23;100.00;98275.38;10576099;27;20789;-81
2022/11/29 05:29:54;;;;;;;38.08;20.05;;;;;;;7.33;100.00;98280.47;10616928;27;20478;-79
2022/11/29 05:35:18;;;;;;;40.53;19.48;;;;;;;7.26;100.00;98280.88;10586417;27;20105;-82
2022/11/29 05:40:49;;;;;;;39.13;19.17;;;;;;;7.21;100.00;98283.66;10584328;27;20479;-81
2022/11/29 05:46:02;;;;;;;37.95;19.05;;;;;;;7.25;100.00;98283.84;10610467;27;20055;-81
2022/11/29 05:51:20;;;;;;;38.83;19.33;;;;;;;7.11;100.00;98289.22;10636675;27;20024;-79
2022/11/29 05:56:58;;;;;;;43.75;21.63;;;;;;;7.12;100.00;98288.91;10588563;27;20040;-78
2022/11/29 06:02:26;;;;;;;38.33;21.20;;;;;;;7.16;100.00;98296.34;10584230;27;20079;-78
2022/11/29 06:07:43;;;;;;;38.45;19.05;;;;;;;7.24;100.00;98300.97;10591267;27;20042;-78
2022/11/29 06:13:21;;;;;;;40.08;19.77;;;;;;;7.28;100.00;98297.38;10586809;27;20047;-78
2022/11/29 06:19:00;;;;;;;42.03;19.52;;;;;;;7.34;100.00;98303.41;10590195;27;20047;-79
2022/11/29 06:24:39;;;;;;;50.22;21.70;;;;;;;7.12;100.00;98317.47;10560620;27;20108;-79
2022/11/29 06:30:08;;;;;;;42.67;20.67;;;;;;;7.25;100.00;98315.88;10504022;27;20059;-77
2022/11/29 06:35:12;;;;;;;40.75;18.33;;;;;;;7.24;100.00;98316.97;10579765;27;20450;-79
2022/11/29 06:40:14;;;;;;;40.90;19.52;;;;;;;7.20;100.00;98324.00;10604035;27;20038;-80
2022/11/29 06:45:20;;;;;;;38.00;18.33;;;;;;;7.12;100.00;98331.59;10600739;27;20043;-80
2022/11/29 06:50:57;;;;;;;37.10;19.30;;;;;;;7.26;100.00;98331.59;10581898;27;20039;-81
2022/11/29 06:56:06;;;;;;;41.17;20.65;;;;;;;7.13;100.00;98330.53;10562511;27;20069;-79
2022/11/29 07:01:18;;;;;;;39.55;20.00;;;;;;;7.26;100.00;98338.81;10590282;27;20127;-81
2022/11/29 07:06:23;;;;;;;38.50;18.15;;;;;;;7.40;100.00;98339.56;10582166;27;20035;-79
2022/11/29 07:11:25;;;;;;;45.08;20.45;;;;;;;7.24;100.00;98352.47;10590311;27;20084;-79
2022/11/29 07:16:46;;;;;;;41.42;20.75;;;;;;;7.06;100.00;98356.84;10586202;27;20122;-79
2022/11/29 07:22:09;;;;;;;42.92;21.33;;;;;;;6.94;100.00;98358.41;10576274;27;20102;-81
2022/11/29 07:27:11;;;;;;;;;;;;;;;7.17;100.00;98359.31;10571906;27;20103;-81
2022/11/29 07:32:20;;;;;;;41.30;19.37;;;;;;;7.26;100.00;98366.31;10587491;27;19945;-79
2022/11/29 07:37:51;;;;;;;42.15;21.40;;;;;;;7.23;100.00;98366.13;10577960;27;20308;-80
2022/11/29 07:43:07;;;;;;;41.13;19.48;;;;;;;7.23;100.00;98371.47;10569743;27;20047;-79
2022/11/29 07:48:11;;;;;;;40.17;20.60;;;;;;;7.28;100.00;98374.00;10574252;27;20047;-81
2022/11/29 07:53:17;;;;;;;41.53;20.08;;;;;;;7.32;100.00;98375.00;10575848;27;20395;-79
2022/11/29 07:58:18;;;;;;;36.90;19.33;;;;;;;7.17;100.00;98375.31;10582618;27;20039;-78
2022/11/29 08:03:18;;;;;;;37.33;18.30;;;;;;;7.43;100.00;98378.25;10584073;27;20051;-79
2022/11/29 08:08:19;;;;;;;35.35;18.08;;;;;;;7.35;100.00;98377.06;10567181;27;20043;-81
2022/11/29 08:13:20;;;;;;;36.20;18.42;;;;;;;7.37;100.00;98389.03;10563911;27;20452;-79
2022/11/29 08:18:21;;;;;;;33.47;17.83;;;;;;;7.33;100.00;98389.94;10581292;27;20032;-80
2022/11/29 08:23:22;;;;;;;36.75;18.65;;;;;;;7.38;100.00;98395.94;10582260;28;20071;-81
2022/11/29 08:28:25;;;;;;;32.53;15.68;;;;;;;7.29;100.00;98403.06;10586579;28;20040;-79
2022/11/29 08:33:27;;;;;;;35.03;18.38;;;;;;;7.26;100.00;98403.69;10567090;27;20048;-79
2022/11/29 08:38:28;;;;;;;35.57;17.53;;;;;;;7.40;100.00;98399.09;10596933;28;20050;-85
2022/11/29 08:43:29;;;;;;;31.75;17.63;;;;;;;7.50;100.00;98406.13;10622609;28;20047;-81
2022/11/29 08:48:29;;;;;;;35.58;16.70;;;;;;;7.57;100.00;98416.41;10631281;28;20063;-80
2022/11/29 08:53:45;;;;;;;32.90;17.73;;;;;;;7.54;100.00;98417.00;10621729;28;20044;-85
2022/11/29 08:58:46;;;;;;;31.48;15.73;;;;;;;7.51;100.00;98420.28;10611006;27;20488;-86
2022/11/29 09:04:01;;;;;;;32.83;15.88;;;;;;;7.61;100.00;98420.84;10615323;28;20761;-83
2022/11/29 09:09:05;;;;;;;31.33;16.75;;;;;;;7.40;100.00;98433.03;10586830;27;20059;-87
2022/11/29 09:14:07;;;;;;;37.90;16.80;;;;;;;7.73;100.00;98432.91;10633977;27;20039;-83
2022/11/29 09:19:07;;;;;;;31.70;16.80;;;;;;;7.77;100.00;98440.00;10592646;27;20112;-80
2022/11/29 09:24:09;;;;;;;32.13;16.13;;;;;;;7.98;100.00;98435.03;10604029;27;20047;-83
2022/11/29 09:29:09;;;;;;;29.73;16.23;;;;;;;8.00;100.00;98430.16;10595607;27;20082;-82
2022/11/29 09:34:15;;;;;;;28.15;15.38;;;;;;;7.95;100.00;98443.63;10571517;27;20062;-82
2022/11/29 09:39:15;;;;;;;26.65;14.35;;;;;;;8.16;100.00;98434.06;10603164;27;20535;-82
2022/11/29 09:44:41;;;;;;;29.23;14.95;;;;;;;7.93;100.00;98443.94;10569050;27;20043;-83
2022/11/29 09:49:48;;;;;;;27.80;15.30;;;;;;;8.10;100.00;98439.81;10586536;27;20095;-82
2022/11/29 09:55:18;;;;;;;32.08;16.25;;;;;;;8.33;100.00;98446.00;10640048;22;20073;-81
2022/11/29 10:00:19;;;;;;;28.17;14.10;;;;;;;8.47;100.00;98449.41;10476445;28;20049;-81
2022/11/29 10:05:32;;;;;;;25.80;13.52;;;;;;;8.40;100.00;98446.38;10475472;28;20076;-82
2022/11/29 10:10:42;;;;;;;25.47;13.77;;;;;;;8.42;100.00;98447.66;10443644;28;20088;-83
2022/11/29 10:15:47;;;;;;;24.52;13.73;;;;;;;8.38;100.00;98454.69;10470161;28;20052;-81
2022/11/29 10:20:51;;;;;;;25.73;13.45;;;;;;;8.47;100.00;98460.91;10442378;28;20037;-81
2022/11/29 10:25:54;;;;;;;25.33;13.73;;;;;;;8.40;100.00;98457.06;10441619;28;20033;-81
2022/11/29 10:31:00;;;;;;;27.30;15.43;;;;;;;8.34;100.00;98458.28;10442091;28;20087;-80
2022/11/29 10:36:08;;;;;;;24.58;13.25;;;;;;;8.64;100.00;98451.41;10433437;28;20046;-82
2022/11/29 10:41:16;;;;;;;22.20;14.30;;;;;;;8.64;100.00;98452.19;10430101;28;20402;-81
2022/11/29 10:46:28;;;;;;;25.30;13.82;;;;;;;8.66;100.00;98450.00;10430480;28;20112;-82
2022/11/29 10:51:32;;;;;;;24.95;14.23;;;;;;;8.55;100.00;98449.47;10420678;28;20046;-82
2022/11/29 10:56:36;;;;;;;27.17;14.90;;;;;;;8.75;100.00;98452.75;10438661;28;20467;-85
2022/11/29 11:01:41;;;;;;;27.77;15.85;;;;;;;8.66;100.00;98452.69;10446275;28;20485;-79
2022/11/29 11:06:51;;;;;;;24.95;14.60;;;;;;;8.81;100.00;98457.66;10431833;28;20072;-79
2022/11/29 11:11:56;;;;;;;26.38;14.40;;;;;;;8.81;100.00;98460.34;10439366;28;20040;-82
2022/11/29 11:17:14;;;;;;;28.50;15.48;;;;;;;8.73;100.00;98453.03;10426740;28;20822;-81
2022/11/29 11:22:21;;;;;;;28.50;16.20;;;;;;;8.67;100.00;98454.25;10438270;28;20120;-81
2022/11/29 11:27:40;;;;;;;29.52;15.30;;;;;;;8.83;100.00;98460.03;10442488;28;20045;-82
2022/11/29 11:33:08;;;;;;;28.75;15.63;;;;;;;8.86;100.00;98463.97;10448353;28;20045;-81
2022/11/29 11:38:17;;;;;;;29.08;15.00;;;;;;;8.82;100.00;98464.59;10440420;28;20041;-81
2022/11/29 11:43:22;;;;;;;29.20;14.38;;;;;;;8.76;100.00;98470.38;10485398;28;20029;-79
2022/11/29 11:48:23;;;;;;;30.45;15.77;;;;;;;8.64;100.00;98465.59;10476363;28;20045;-78
2022/11/29 11:53:34;;;;;;;27.50;14.85;;;;;;;8.83;100.00;98463.50;10493677;28;20021;-81
2022/11/29 11:58:50;;;;;;;28.10;15.32;;;;;;;8.76;100.00;98470.38;10465576;28;20048;-82
2022/11/29 12:04:11;;;;;;;25.00;14.32;;;;;;;8.80;100.00;98469.47;10446428;28;20045;-81
2022/11/29 12:09:33;;;;;;;28.08;15.80;;;;;;;8.95;100.00;98478.97;10470127;28;20111;-79
2022/11/29 12:14:55;;;;;;;27.02;14.73;;;;;;;8.78;100.00;98474.34;10470892;28;20041;-79
2022/11/29 12:20:11;;;;;;;26.15;15.18;;;;;;;8.97;100.00;98481.38;10480739;28;20032;-80
2022/11/29 12:25:21;;;;;;;27.38;14.98;;;;;;;9.02;100.00;98473.97;10423092;28;20401;-81
2022/11/29 12:30:22;;;;;;;27.52;14.70;;;;;;;9.20;100.00;98476.75;10435252;28;20083;-85
2022/11/29 12:35:33;;;;;;;31.88;16.92;;;;;;;9.08;100.00;98488.81;10447819;28;20049;-84
2022/11/29 12:40:49;;;;;;;23.90;13.82;;;;;;;8.72;100.00;98478.22;10464090;28;20041;-81
2022/11/29 12:46:09;;;;;;;26.80;15.15;;;;;;;8.76;100.00;98495.25;10470222;28;20469;-83
2022/11/29 12:51:48;;;;;;;27.58;14.95;;;;;;;8.70;100.00;98493.81;10474965;28;20049;-82
2022/11/29 12:57:22;;;;;;;28.02;14.10;;;;;;;8.98;100.00;98491.78;10483121;28;20500;-86
2022/11/29 13:03:02;;;;;;;32.00;16.40;;;;;;;8.88;100.00;98493.91;10452268;28;20061;-85
2022/11/29 13:08:15;;;;;;;31.27;15.95;;;;;;;8.94;100.00;98500.69;10432178;28;20040;-83
2022/11/29 13:13:32;;;;;;;26.45;15.48;;;;;;;8.88;100.00;98500.06;10473199;28;20064;-83
2022/11/29 13:18:41;;;;;;;24.85;13.57;;;;;;;8.91;100.00;98502.13;10460056;28;20037;-83
2022/11/29 13:23:48;;;;;;;32.13;16.70;;;;;;;8.75;100.00;98506.25;11691654;22;20032;-83
2022/11/29 13:28:51;;;;;;;32.50;16.25;;;;;;;8.93;100.00;98505.28;12169997;22;20052;-86
2022/11/29 13:39:51;;;;;;;28.23;15.07;;;;;;;8.92;100.00;98510.94;10403158;28;20053;-82
2022/11/29 13:45:05;;;;;;;29.95;15.90;;;;;;;8.84;100.00;98509.78;10400982;28;20056;-86
2022/11/29 13:50:36;;;;;;;28.42;16.35;;;;;;;8.89;100.00;98516.91;10456011;22;20084;-83
2022/11/29 13:55:47;;;;;;;31.65;16.42;;;;;;;8.94;100.00;98512.19;10399050;28;20030;-83
2022/11/29 14:00:59;;;;;;;30.73;17.23;;;;;;;8.84;100.00;98521.28;10415353;28;20117;-83
2022/11/29 14:06:08;;;;;;;32.38;16.92;;;;;;;8.62;100.00;98515.94;10660684;22;20827;-85
2022/11/29 14:11:19;;;;;;;33.92;17.75;;;;;;;8.50;100.00;98521.84;10476057;28;20079;-87
2022/11/29 14:16:58;;;;;;;32.17;18.25;;;;;;;8.65;100.00;98523.34;10470768;28;20114;-87
2022/11/29 14:22:18;;;;;;;30.48;17.00;;;;;;;8.60;100.00;98523.47;10454417;28;20044;-88
2022/11/29 14:27:19;;;;;;;37.38;19.23;;;;;;;8.41;100.00;98530.84;10453885;28;20060;-85
2022/11/29 14:32:49;;;;;;;34.40;19.80;;;;;;;8.34;100.00;98536.59;10476933;28;20064;-87
2022/11/29 14:38:44;;;;;;;36.20;19.40;;;;;;;8.49;100.00;98540.84;10437766;28;20654;-88
2022/11/29 14:49:20;;;;;;;29.35;16.52;;;;;;;8.36;100.00;98545.16;10420138;28;20061;-91
2022/11/29 14:54:21;;;;;;;32.65;18.42;;;;;;;8.30;100.00;98549.00;10397952;28;20038;-88
2022/11/29 14:59:46;;;;;;;35.22;18.60;;;;;;;8.33;100.00;98548.41;10390457;28;20477;-85
2022/11/29 15:04:52;;;;;;;33.70;17.75;;;;;;;8.25;100.00;98551.78;10386752;28;20041;-84
2022/11/29 15:09:56;;;;;;;32.15;18.27;;;;;;;8.18;100.00;98557.53;10406038;28;20092;-84
2022/11/29 15:15:37;;;;;;;29.95;17.30;;;;;;;8.27;100.00;98563.75;10439990;28;20030;-83
2022/11/29 15:21:02;;;;;;;30.75;16.30;;;;;;;8.30;100.00;98566.91;10396404;28;20093;-84
2022/11/29 15:26:02;;;;;;;32.95;17.55;;;;;;;8.32;100.00;98565.53;10404162;28;20050;-83
2022/11/29 15:31:10;;;;;;;29.70;16.35;;;;;;;8.39;100.00;98573.94;10412639;28;20036;-81
2022/11/29 15:36:23;;;;;;;32.38;16.95;;;;;;;8.38;100.00;98579.59;10415288;28;20038;-83
2022/11/29 15:41:34;;;;;;;30.80;17.38;;;;;;;8.40;100.00;98580.09;10409212;28;20053;-84
2022/11/29 15:46:36;;;;;;;35.10;18.15;;;;;;;8.64;100.00;98590.53;10410421;28;20499;-83
2022/11/29 15:51:40;;;;;;;37.22;18.88;;;;;;;8.59;100.00;98594.09;10420150;28;20115;-83
2022/11/29 15:57:03;;;;;;;36.70;18.17;;;;;;;8.58;100.00;98595.22;10384351;28;20068;-83
2022/11/29 16:02:29;;;;;;;33.78;17.38;;;;;;;8.87;100.00;98586.00;10410542;28;20531;-88
2022/11/29 16:07:32;;;;;;;27.88;15.70;;;;;;;8.71;100.00;98594.38;10586363;23;20403;-85
2022/11/29 16:12:33;;;;;;;32.33;18.77;;;;;;;8.78;100.00;98604.69;10334137;28;20065;-84
2022/11/29 16:17:34;;;;;;;31.02;17.95;;;;;;;8.90;100.00;98609.50;10306324;28;20049;-85
2022/11/29 16:22:34;;;;;;;27.50;17.48;;;;;;;8.87;100.00;98618.09;10313311;28;20046;-83
2022/11/29 16:27:35;;;;;;;30.30;17.33;;;;;;;8.74;100.00;98609.03;10307742;28;20438;-83
2022/11/29 16:32:42;;;;;;;31.27;16.85;;;;;;;8.61;100.00;98612.56;10312384;28;20414;-86
2022/11/29 16:37:45;;;;;;;26.13;15.68;;;;;;;8.68;100.00;98613.72;10300497;28;20042;-87
2022/11/29 16:43:04;;;;;;;29.75;17.23;;;;;;;8.64;100.00;98625.31;10308734;28;20106;-83
2022/11/29 16:48:25;;;;;;;27.33;15.88;;;;;;;8.61;100.00;98617.91;10308590;28;20039;-84
2022/11/29 16:53:37;;;;;;;30.05;16.85;;;;;;;8.59;100.00;98622.75;10306052;28;20567;-83
2022/11/29 16:58:39;;;;;;;29.50;15.73;;;;;;;8.60;100.00;98621.69;10301028;28;20050;-83
2022/11/29 17:03:39;;;;;;;24.15;14.40;;;;;;;8.52;100.00;98632.00;10307001;28;20042;-83
2022/11/29 17:08:40;;;;;;;22.95;14.05;;;;;;;8.73;100.00;98626.97;10326788;28;20043;-82
2022/11/29 17:13:43;;;;;;;23.48;13.25;;;;;;;8.55;100.00;98638.63;10333359;28;20037;-80
2022/11/29 17:18:45;;;;;;;;;;;;;;;8.57;100.00;98635.63;10314015;28;20030;-79
2022/11/29 17:23:46;;;;;;;25.63;14.50;;;;;;;8.38;100.00;98641.91;10319886;28;20020;-82
2022/11/29 17:28:48;;;;;;;30.27;15.68;;;;;;;8.44;100.00;98640.72;10274889;28;20089;-81
2022/11/29 17:33:52;;;;;;;26.30;14.60;;;;;;;8.54;100.00;98645.84;10296675;28;20038;-81
2022/11/29 17:38:52;;;;;;;26.05;13.65;;;;;;;8.54;100.00;98647.75;10309142;28;20050;-82
2022/11/29 17:43:55;;;;;;;34.40;18.77;;;;;;;8.42;100.00;98656.28;10323252;28;20375;-84
2022/11/29 17:48:58;;;;;;;24.35;14.50;;;;;;;8.41;100.00;98654.72;10313043;28;20055;-82
2022/11/29 17:54:03;;;;;;;;;;;;;;;8.38;100.00;98662.53;10320741;28;20030;-82
2022/11/29 17:59:04;;;;;;;27.20;14.55;;;;;;;8.20;100.00;98667.66;10324620;28;19928;-81
2022/11/29 18:04:07;;;;;;;26.55;14.15;;;;;;;8.42;100.00;98658.19;10322308;28;20042;-81
2022/11/29 18:09:09;;;;;;;21.50;13.75;;;;;;;8.41;100.00;98662.72;10338235;28;20050;-83
2022/11/29 18:14:14;;;;;;;23.40;13.50;;;;;;;8.42;100.00;98668.88;10341274;28;20141;-81
2022/11/29 18:19:18;;;;;;;26.52;15.00;;;;;;;8.42;100.00;98676.91;10333950;28;20605;-81
2022/11/29 18:24:19;;;;;;;31.27;16.20;;;;;;;8.24;100.00;98678.56;10335306;28;20070;-84
2022/11/29 18:29:20;;;;;;;29.98;15.15;;;;;;;8.31;100.00;98672.78;10317597;28;20062;-83
2022/11/29 18:34:20;;;;;;;26.52;14.77;;;;;;;8.31;100.00;98670.91;10295321;28;20046;-82
2022/11/29 18:39:23;;;;;;;26.38;14.88;;;;;;;8.35;100.00;98684.53;10320190;28;20054;-82
2022/11/29 18:44:28;;;;;;;32.80;17.98;;;;;;;8.16;100.00;98693.41;10312392;28;20061;-84
2022/11/29 18:49:28;;;;;;;28.83;16.30;;;;;;;8.25;100.00;98696.19;10319944;28;20390;-82
2022/11/29 18:54:29;;;;;;;27.13;14.82;;;;;;;8.26;100.00;98692.41;10325743;28;20078;-81
2022/11/29 18:59:30;;;;;;;28.95;15.25;;;;;;;8.21;100.00;98695.16;10331372;28;20074;-80
2022/11/29 19:04:30;;;;;;;28.77;16.42;;;;;;;8.26;100.00;98695.88;10337609;28;20092;-82
2022/11/29 19:09:31;;;;;;;29.42;14.98;;;;;;;8.22;100.00;98696.75;10328104;28;20093;-83
2022/11/29 19:14:32;;;;;;;27.10;15.15;;;;;;;8.13;100.00;98699.31;10338134;28;20039;-82
2022/11/29 19:19:33;;;;;;;25.50;14.27;;;;;;;8.10;100.00;98702.59;10324705;28;20037;-81
2022/11/29 19:24:40;;;;;;;23.38;14.25;;;;;;;8.29;100.00;98694.47;10338010;28;20038;-80
2022/11/29 19:29:51;;;;;;;25.95;14.90;;;;;;;8.25;100.00;98698.84;12491220;22;20514;-82
2022/11/29 19:34:52;;;;;;;28.13;14.65;;;;;;;8.16;100.00;98697.97;10561024;22;20044;-84
2022/11/29 19:39:52;;;;;;;24.35;14.73;;;;;;;8.09;100.00;98697.56;10509980;28;20066;-84
2022/11/29 19:44:56;;;;;;;26.33;14.32;;;;;;;8.03;100.00;98710.22;10510248;28;20048;-85
2022/11/29 19:49:57;;;;;;;28.40;16.52;;;;;;;8.09;100.00;98711.72;10492818;28;20109;-85
2022/11/29 19:54:58;;;;;;;26.80;15.57;;;;;;;8.03;100.00;98709.41;10507992;28;20052;-84
2022/11/29 19:59:59;;;;;;;33.42;16.63;;;;;;;8.04;100.00;98706.44;10500852;28;20055;-83
2022/11/29 20:04:59;;;;;;;26.33;15.00;;;;;;;7.99;100.00;98699.31;10488672;28;20102;-84
2022/11/29 20:10:00;;;;;;;22.63;14.15;;;;;;;8.11;100.00;98711.41;10490142;28;20048;-83
2022/11/29 20:15:01;;;;;;;28.42;14.57;;;;;;;8.03;100.00;98715.56;10493029;28;20060;-86
2022/11/29 20:20:02;;;;;;;27.63;14.90;;;;;;;8.01;100.00;98708.94;10480678;28;20053;-84
2022/11/29 20:25:03;;;;;;;26.13;14.63;;;;;;;8.02;100.00;98716.63;10475770;28;20073;-83
2022/11/29 20:30:06;;;;;;;29.75;17.58;;;;;;;7.83;100.00;98715.91;10475374;28;20401;-84
2022/11/29 20:35:08;;;;;;;22.30;13.73;;;;;;;7.79;100.00;98712.25;10492775;28;20061;-85
2022/11/29 20:40:15;;;;;;;27.20;16.10;;;;;;;7.66;100.00;98708.44;10490591;28;20041;-86
2022/11/29 20:45:16;;;;;;;26.55;15.48;;;;;;;7.55;100.00;98720.41;10480793;28;20041;-84
2022/11/29 20:50:23;;;;;;;27.45;16.02;;;;;;;7.56;100.00;98711.28;10481290;28;20116;-85
2022/11/29 20:55:24;;;;;;;26.00;15.25;;;;;;;7.62;100.00;98729.63;10501263;28;20021;-84
2022/11/29 21:00:26;;;;;;;23.20;14.32;;;;;;;7.56;100.00;98730.78;10471201;28;20053;-84
2022/11/29 21:05:27;;;;;;;26.35;14.48;;;;;;;7.65;100.00;98736.25;10499142;28;20099;-85
2022/11/29 21:10:27;;;;;;;24.95;14.13;;;;;;;7.57;100.00;98729.69;10486708;28;20067;-85
2022/11/29 21:15:28;;;;;;;27.27;16.77;;;;;;;7.62;100.00;98736.84;10483556;28;20679;-85
2022/11/29 21:20:31;;;;;;;29.85;18.55;;;;;;;7.54;100.00;98740.19;10495062;28;20059;-83
2022/11/29 21:25:32;;;;;;;;;;;;;;;7.40;100.00;98756.91;10493654;28;20091;-81
2022/11/29 21:30:32;;;;;;;31.43;18.27;;;;;;;7.49;100.00;98758.94;10501348;28;19917;-82
2022/11/29 21:35:33;;;;;;;27.10;16.88;;;;;;;7.55;100.00;98755.91;10494166;28;20330;-86
2022/11/29 21:40:34;;;;;;;30.77;17.63;;;;;;;7.56;100.00;98765.50;10488335;28;20033;-86
2022/11/29 21:45:35;;;;;;;30.17;16.25;;;;;;;7.77;100.00;98765.19;10482434;28;20045;-85
2022/11/29 21:50:35;;;;;;;30.63;17.00;;;;;;;7.78;100.00;98766.78;10485016;28;20095;-83
2022/11/29 21:55:36;;;;;;;21.52;14.38;;;;;;;7.72;100.00;98774.09;10493660;28;20079;-85
2022/11/29 22:00:37;;;;;;;29.10;17.23;;;;;;;7.46;100.00;98787.03;10496235;28;20033;-81
2022/11/29 22:05:38;;;;;;;33.95;18.58;;;;;;;7.55;100.00;98771.94;10488778;28;20160;-83
2022/11/29 22:10:39;;;;;;;30.77;16.60;;;;;;;7.61;100.00;98776.13;10495358;28;20055;-80
2022/11/29 22:15:39;;;;;;;27.38;15.68;;;;;;;7.50;100.00;98773.88;10508376;28;20039;-78
2022/11/29 22:20:40;;;;;;;28.90;16.60;;;;;;;7.69;100.00;98769.31;10513459;28;20032;-82
2022/11/29 22:25:40;;;;;;;28.35;17.17;;;;;;;7.47;100.00;98771.78;10560224;22;20032;-84
2022/11/29 22:30:41;;;;;;;29.80;17.38;;;;;;;7.72;100.00;98778.63;10501884;28;20037;-84
2022/11/29 22:35:43;;;;;;;26.08;16.05;;;;;;;7.64;100.00;98777.41;10480648;28;20041;-82
2022/11/29 22:40:44;;;;;;;27.20;16.42;;;;;;;7.74;100.00;98787.16;10481237;28;20516;-81
2022/11/29 22:45:47;;;;;;;28.27;16.38;;;;;;;7.74;100.00;98787.94;10472097;28;20041;-84
2022/11/29 22:50:47;;;;;;;23.15;13.52;;;;;;;7.79;100.00;98782.53;10479572;28;20144;-84
2022/11/29 22:55:49;;;;;;;25.50;15.10;;;;;;;7.75;100.00;98786.84;10482647;28;20052;-83
2022/11/29 23:00:49;;;;;;;26.65;14.70;;;;;;;7.69;100.00;98780.00;10484290;28;20539;-82
2022/11/29 23:05:50;;;;;;;25.67;14.65;;;;;;;7.73;100.00;98785.56;10485894;28;20055;-82
2022/11/29 23:10:55;;;;;;;23.63;13.55;;;;;;;7.78;100.00;98783.63;10484969;28;20074;-80
2022/11/29 23:15:56;;;;;;;23.75;13.70;;;;;;;7.73;100.00;98783.69;10508054;28;20051;-78
2022/11/29 23:21:00;;;;;;;24.55;13.98;;;;;;;7.79;100.00;98787.88;10522760;28;20036;-81
2022/11/29 23:26:03;;;;;;;25.77;14.60;;;;;;;7.77;100.00;98786.56;10519288;28;20162;-79
2022/11/29 23:31:04;;;;;;;22.20;13.75;;;;;;;7.72;100.00;98775.97;10519450;28;20045;-81
2022/11/29 23:36:07;;;;;;;23.35;13.50;;;;;;;7.67;100.00;98774.16;10496253;28;20052;-83
2022/11/29 23:41:08;;;;;;;20.23;12.02;;;;;;;7.45;100.00;98784.66;10466270;28;20052;-83
2022/11/29 23:46:14;;;;;;;18.67;11.43;;;;;;;7.55;100.00;98771.13;10483176;28;20134;-82
2022/11/29 23:51:16;;;;;;;18.90;11.57;;;;;;;7.64;100.00;98764.06;10507551;28;20048;-82
2022/11/29 23:56:17;;;;;;;19.35;11.43;;;;;;;7.66;100.00;98764.56;10493999;28;20473;-83
